Gamle Salten — LCQT — position and weather

sailwx.info

Track history (hours):
 
Tides and Currents Weather Stations Pressure Air Temp Water Temp Dewpoint Dewpoint Depression Visibility Wind Speed Wind Dir Waves Ship Positions

Gamle Salten

Last reported at 2018-Apr-22 16:30 UTC. Time now 2018-Apr-22 16:34 UTC.
Position N 69°32' E 018°04'.

Length 48 m; draft 5 m.

Type: Passenger vessel. MMSI: 258178000.

Date/timePositionNaut miles runAvg speedWind from/ knotsBaromVisibWave heightAir tempDewpointWater temp
2018-Apr-22 16:30N 69°32' E 018°04'5 9.7
2018-Apr-22 16:00N 69°31' E 018°18'610.7
2018-Apr-22 15:29N 69°32' E 018°33'5 9.2
2018-Apr-22 15:00N 69°34' E 018°46'5 9.7
2018-Apr-22 14:30N 69°37' E 018°55'2 3.5
2018-Apr-22 13:58N 69°39' E 018°57'0 0.1
2018-Apr-22 13:30N 69°39' E 018°57'0 0.1
2018-Apr-22 13:00N 69°39' E 018°57'0 0.0
2018-Apr-22 12:30N 69°39' E 018°57'0 0.0
2018-Apr-22 11:59N 69°39' E 018°57'0 0.0
2018-Apr-22 11:29N 69°39' E 018°57'0 0.1
2018-Apr-22 11:00N 69°39' E 018°57'0 0.1
2018-Apr-22 10:30N 69°39' E 018°57'0 0.0
2018-Apr-22 10:00N 69°39' E 018°57'1 1.5
2018-Apr-22 09:30N 69°38' E 018°57'510.0
2018-Apr-22 09:00N 69°34' E 018°48'4 7.9
2018-Apr-22 08:30N 69°33' E 018°37'5 9.9
2018-Apr-22 08:00N 69°32' E 018°23'5 9.9
2018-Apr-22 07:30N 69°31' E 018°09'5 9.9
2018-Apr-22 07:00N 69°35' E 017°59'3 6.3
2018-Apr-22 06:28N 69°38' E 018°00'0 0.2
2018-Apr-22 05:59N 69°38' E 018°00'0 0.0
2018-Apr-22 05:28N 69°38' E 018°00'0 0.0
2018-Apr-22 04:58N 69°38' E 018°00'0 0.0
2018-Apr-22 04:28N 69°38' E 018°00'0 0.0
2018-Apr-22 03:58N 69°38' E 018°00'0 0.0
2018-Apr-22 03:30N 69°38' E 018°00'0 0.0
2018-Apr-22 03:00N 69°38' E 018°00'0 0.0
2018-Apr-22 02:30N 69°38' E 018°00'0 0.0
2018-Apr-22 01:59N 69°38' E 018°00'0 0.0
2018-Apr-22 01:29N 69°38' E 018°00'0 0.0
2018-Apr-22 00:59N 69°38' E 018°00'0 0.0
2018-Apr-22 00:28N 69°38' E 018°00'0 0.0
2018-Apr-21 23:58N 69°38' E 018°00'0 0.0
2018-Apr-21 23:28N 69°38' E 018°00'0 0.0
2018-Apr-21 22:58N 69°38' E 018°00'0 0.0
2018-Apr-21 22:30N 69°38' E 018°00'0 0.0
2018-Apr-21 22:00N 69°38' E 018°00'0 0.0
2018-Apr-21 21:30N 69°38' E 018°00'0 0.0
2018-Apr-21 20:59N 69°38' E 018°00'0 0.0
2018-Apr-21 20:30N 69°38' E 018°00'2 4.6
2018-Apr-21 20:00N 69°36' E 017°57'510.5
2018-Apr-21 19:30N 69°31' E 018°03'510.3
2018-Apr-21 18:59N 69°26' E 018°07'510.5
2018-Apr-21 18:30N 69°21' E 018°05'5 9.9
2018-Apr-21 17:59N 69°16' E 017°58'5 9.6
2018-Apr-21 17:30N 69°12' E 018°01'5 9.7
2018-Apr-21 16:59N 69°09' E 017°49'510.4
2018-Apr-21 16:30N 69°07' E 017°36'510.5
2018-Apr-21 16:00N 69°05' E 017°23'510.5
2018-Apr-21 15:30N 69°00' E 017°15'610.7
2018-Apr-21 14:59N 68°56' E 017°06'510.0
2018-Apr-21 14:30N 68°51' E 017°07'4 8.6
2018-Apr-21 13:59N 68°47' E 017°11'0 0.0
2018-Apr-21 13:30N 68°47' E 017°11'0 0.0
2018-Apr-21 13:00N 68°47' E 017°11'0 0.0
2018-Apr-21 12:30N 68°47' E 017°11'0 0.0
2018-Apr-21 12:00N 68°47' E 017°11'0 0.0
2018-Apr-21 11:29N 68°47' E 017°11'0 0.0
2018-Apr-21 10:59N 68°47' E 017°11'0 0.0
2018-Apr-21 10:26N 68°47' E 017°11'0 0.0
2018-Apr-21 09:58N 68°47' E 017°11'0 0.0
2018-Apr-21 09:28N 68°47' E 017°11'0 0.0
2018-Apr-21 08:58N 68°47' E 017°11'0 0.0
2018-Apr-21 08:30N 68°47' E 017°11'0 0.0
2018-Apr-21 07:59N 68°47' E 017°11'0 0.0
2018-Apr-21 07:29N 68°47' E 017°11'0 0.0
2018-Apr-21 06:58N 68°47' E 017°11'0 0.0
2018-Apr-21 06:28N 68°47' E 017°11'0 0.0
2018-Apr-21 05:58N 68°47' E 017°11'0 0.0
2018-Apr-21 05:30N 68°47' E 017°11'0 0.0
2018-Apr-21 05:00N 68°47' E 017°11'0 0.0
2018-Apr-21 04:30N 68°47' E 017°11'0 0.0
2018-Apr-21 03:59N 68°47' E 017°11'0 0.0
2018-Apr-21 03:29N 68°47' E 017°11'0 0.0
2018-Apr-21 02:59N 68°47' E 017°11'0 0.0
2018-Apr-21 02:29N 68°47' E 017°11'0 0.0
2018-Apr-21 01:58N 68°47' E 017°11'0 0.0
2018-Apr-21 01:28N 68°47' E 017°11'0 0.0
2018-Apr-21 00:58N 68°47' E 017°11'0 0.0
2018-Apr-21 00:30N 68°47' E 017°11'0 0.0
2018-Apr-21 00:00N 68°47' E 017°11'0 0.0
2018-Apr-20 23:30N 68°47' E 017°11'0 0.0
2018-Apr-20 22:59N 68°47' E 017°11'0 0.0
2018-Apr-20 22:29N 68°47' E 017°11'0 0.0
2018-Apr-20 21:59N 68°47' E 017°11'0 0.0
2018-Apr-20 21:29N 68°47' E 017°11'0 0.0
2018-Apr-20 20:58N 68°47' E 017°11'0 0.0
2018-Apr-20 20:28N 68°47' E 017°11'0 0.0
2018-Apr-20 19:58N 68°47' E 017°11'0 0.0
2018-Apr-20 19:30N 68°47' E 017°11'0 0.0
2018-Apr-20 19:00N 68°47' E 017°11'0 0.0
2018-Apr-20 18:30N 68°47' E 017°11'0 0.0
2018-Apr-20 18:00N 68°47' E 017°11'0 0.1
2018-Apr-20 17:29N 68°47' E 017°11'4 8.7
2018-Apr-20 17:00N 68°44' E 017°02'510.3
2018-Apr-20 16:30N 68°42' E 016°50'510.6
2018-Apr-20 16:00N 68°39' E 016°37'611.5
2018-Apr-20 15:30N 68°34' E 016°31'611.1
2018-Apr-20 15:00N 68°33' E 016°16'610.8
2018-Apr-20 14:29N 68°29' E 016°06'4 8.1
2018-Apr-20 13:57N 68°25' E 015°60'0 0.0
2018-Apr-20 13:30N 68°25' E 015°60'0 0.0
2018-Apr-20 13:00N 68°25' E 015°60'0 0.0
2018-Apr-20 12:31N 68°25' E 015°60'0 0.0
2018-Apr-20 12:00N 68°25' E 015°60'0 0.0
2018-Apr-20 11:31N 68°25' E 015°60'0 0.0
2018-Apr-20 11:01N 68°25' E 015°60'0 0.0
2018-Apr-20 10:30N 68°25' E 015°60'0 0.0
2018-Apr-20 10:00N 68°25' E 015°60'0 0.0
2018-Apr-20 09:30N 68°25' E 015°60'0 0.0
2018-Apr-20 09:01N 68°25' E 015°60'0 0.0
2018-Apr-20 08:30N 68°25' E 015°60'0 0.0
2018-Apr-20 08:00N 68°25' E 015°60'0 0.0
2018-Apr-20 07:30N 68°25' E 015°60'0 0.0
2018-Apr-20 06:59N 68°25' E 015°60'0 0.0
2018-Apr-20 06:30N 68°25' E 015°60'0 0.0
2018-Apr-20 06:00N 68°25' E 015°60'0 0.0
2018-Apr-20 05:30N 68°25' E 015°60'0 0.0
2018-Apr-20 05:00N 68°25' E 015°60'0 0.0
2018-Apr-20 04:30N 68°25' E 015°60'0 0.0
2018-Apr-20 04:00N 68°25' E 015°60'0 0.0
2018-Apr-20 03:30N 68°25' E 015°60'0 0.0
2018-Apr-20 03:00N 68°25' E 015°60'0 0.0
2018-Apr-20 02:30N 68°25' E 015°60'0 0.0
2018-Apr-20 02:00N 68°25' E 015°60'0 0.0
2018-Apr-20 01:30N 68°25' E 015°60'0 0.0
2018-Apr-20 01:00N 68°25' E 015°60'0 0.0
2018-Apr-20 00:30N 68°25' E 015°60'0 0.0
2018-Apr-20 00:00N 68°25' E 015°60'1 1.9
2018-Apr-19 23:30N 68°24' E 016°01'510.2
2018-Apr-19 23:00N 68°20' E 015°51'510.2
2018-Apr-19 22:30N 68°18' E 015°40'510.0
2018-Apr-19 22:00N 68°15' E 015°28'510.1
2018-Apr-19 21:31N 68°14' E 015°15'510.0
2018-Apr-19 21:00N 68°13' E 015°02'510.0
2018-Apr-19 20:30N 68°13' E 014°48'5 9.7
2018-Apr-19 20:00N 68°13' E 014°35'1 1.5
2018-Apr-19 19:31N 68°14' E 014°34'0 0.0
2018-Apr-19 18:59N 68°14' E 014°34'0 0.0
2018-Apr-19 18:29N 68°14' E 014°34'0 0.0
2018-Apr-19 18:00N 68°14' E 014°34'0 0.0
2018-Apr-19 17:30N 68°14' E 014°34'0 0.0
2018-Apr-19 17:01N 68°14' E 014°34'0 0.0
2018-Apr-19 16:30N 68°14' E 014°34'0 0.0
2018-Apr-19 16:01N 68°14' E 014°34'0 0.0
2018-Apr-19 15:30N 68°14' E 014°34'0 0.0
2018-Apr-19 15:00N 68°14' E 014°34'0 0.0
2018-Apr-19 14:30N 68°14' E 014°34'0 0.0
2018-Apr-19 14:00N 68°14' E 014°34'0 0.0
2018-Apr-19 13:30N 68°14' E 014°34'0 0.0
2018-Apr-19 13:00N 68°14' E 014°34'0 0.0
2018-Apr-19 12:30N 68°14' E 014°34'0 0.0
2018-Apr-19 12:00N 68°14' E 014°34'0 0.0
2018-Apr-19 11:29N 68°14' E 014°34'0 0.0
2018-Apr-19 11:00N 68°14' E 014°34'0 0.0
2018-Apr-19 10:30N 68°14' E 014°34'0 0.0
2018-Apr-19 10:00N 68°14' E 014°34'0 0.0
2018-Apr-19 09:31N 68°14' E 014°34'0 0.0
2018-Apr-19 09:01N 68°14' E 014°34'0 0.0
2018-Apr-19 08:30N 68°14' E 014°34'0 0.0
2018-Apr-19 07:59N 68°14' E 014°34'0 0.0
2018-Apr-19 07:28N 68°14' E 014°34'0 0.0
2018-Apr-19 07:00N 68°14' E 014°34'0 0.0
2018-Apr-19 06:30N 68°14' E 014°34'0 0.0
2018-Apr-19 06:00N 68°14' E 014°34'0 0.0
2018-Apr-19 05:30N 68°14' E 014°34'0 0.0
2018-Apr-19 05:00N 68°14' E 014°34'0 0.0
2018-Apr-19 04:30N 68°14' E 014°34'0 0.0
2018-Apr-19 04:00N 68°14' E 014°34'0 0.0
2018-Apr-19 03:29N 68°14' E 014°34'0 0.0
2018-Apr-19 02:59N 68°14' E 014°34'0 0.0
2018-Apr-19 02:30N 68°14' E 014°34'0 0.0
2018-Apr-19 02:00N 68°14' E 014°34'0 0.0
2018-Apr-19 01:30N 68°14' E 014°34'0 0.0
2018-Apr-19 00:59N 68°14' E 014°34'0 0.0
2018-Apr-19 00:30N 68°14' E 014°34'0 0.0
2018-Apr-19 00:00N 68°14' E 014°34'0 0.0
2018-Apr-18 23:30N 68°14' E 014°34'0 0.0
2018-Apr-18 22:59N 68°14' E 014°34'0 0.0
2018-Apr-18 22:30N 68°14' E 014°34'0 0.0
2018-Apr-18 22:00N 68°14' E 014°34'0 0.0
2018-Apr-18 21:30N 68°14' E 014°34'0 0.0
2018-Apr-18 21:00N 68°14' E 014°34'0 0.0
2018-Apr-18 20:30N 68°14' E 014°34'0 0.0
2018-Apr-18 20:01N 68°14' E 014°34'0 0.0
2018-Apr-18 19:31N 68°14' E 014°34'0 0.0
2018-Apr-18 19:00N 68°14' E 014°34'0 0.0
2018-Apr-18 18:30N 68°14' E 014°34'0 0.0
2018-Apr-18 18:00N 68°14' E 014°34'0 0.0
2018-Apr-18 17:30N 68°14' E 014°34'0 0.0
2018-Apr-18 17:01N 68°14' E 014°34'0 0.0
2018-Apr-18 16:30N 68°14' E 014°34'0 0.0
2018-Apr-18 16:00N 68°14' E 014°34'0 0.0
2018-Apr-18 15:30N 68°14' E 014°34'0 0.0
2018-Apr-18 15:00N 68°14' E 014°34'0 0.0
2018-Apr-18 14:31N 68°14' E 014°34'0 0.0
2018-Apr-18 14:01N 68°14' E 014°34'0 0.0
2018-Apr-18 13:30N 68°14' E 014°34'0 0.0
2018-Apr-18 13:01N 68°14' E 014°34'0 0.0
2018-Apr-18 12:31N 68°14' E 014°34'0 0.0
2018-Apr-18 12:00N 68°14' E 014°34'0 0.0
2018-Apr-18 11:30N 68°14' E 014°34'0 0.0
2018-Apr-18 11:01N 68°14' E 014°34'0 0.0
2018-Apr-18 10:30N 68°14' E 014°34'0 0.0
2018-Apr-18 10:00N 68°14' E 014°34'0 0.0
2018-Apr-18 09:30N 68°14' E 014°34'0 0.0
2018-Apr-18 09:00N 68°14' E 014°34'0 0.0
2018-Apr-18 08:30N 68°14' E 014°34'0 0.2
2018-Apr-18 08:00N 68°14' E 014°34'0 0.5
2018-Apr-18 07:30N 68°14' E 014°35'0 0.0
2018-Apr-18 07:01N 68°14' E 014°35'0 0.0
2018-Apr-18 06:31N 68°14' E 014°35'0 0.0
2018-Apr-18 06:00N 68°14' E 014°35'0 0.0
2018-Apr-18 05:31N 68°14' E 014°35'0 0.0
2018-Apr-18 05:00N 68°14' E 014°35'0 0.0
2018-Apr-18 04:30N 68°14' E 014°35'0 0.0
2018-Apr-18 04:00N 68°14' E 014°35'0 0.0
2018-Apr-18 03:30N 68°14' E 014°35'0 0.0
2018-Apr-18 03:00N 68°14' E 014°35'0 0.0
2018-Apr-18 02:30N 68°14' E 014°35'0 0.0
2018-Apr-18 01:59N 68°14' E 014°35'0 0.0
2018-Apr-18 01:30N 68°14' E 014°35'0 0.0
2018-Apr-18 01:00N 68°14' E 014°35'0 0.0
2018-Apr-18 00:30N 68°14' E 014°35'0 0.0
2018-Apr-18 00:00N 68°14' E 014°35'0 0.0
2018-Apr-17 23:30N 68°14' E 014°35'0 0.0
2018-Apr-17 23:01N 68°14' E 014°35'0 0.0
2018-Apr-17 22:31N 68°14' E 014°35'0 0.0
2018-Apr-17 22:00N 68°14' E 014°35'0 0.4
2018-Apr-17 21:30N 68°14' E 014°34'4 7.4
2018-Apr-17 21:00N 68°14' E 014°44'510.2
2018-Apr-17 20:31N 68°13' E 014°57'510.6
2018-Apr-17 20:00N 68°14' E 015°12'510.3
2018-Apr-17 19:30N 68°15' E 015°25'510.1
2018-Apr-17 19:00N 68°17' E 015°37'510.5
2018-Apr-17 18:30N 68°20' E 015°50'510.0
2018-Apr-17 18:00N 68°23' E 015°60'510.4
2018-Apr-17 17:30N 68°28' E 016°06'510.4
2018-Apr-17 16:59N 68°33' E 016°13'510.8
2018-Apr-17 16:30N 68°33' E 016°27'5 9.6
2018-Apr-17 16:00N 68°37' E 016°34'5 9.6
2018-Apr-17 15:30N 68°41' E 016°43'510.4
2018-Apr-17 15:00N 68°43' E 016°56'4 8.3
2018-Apr-17 14:30N 68°45' E 017°07'3 5.2
2018-Apr-17 14:00N 68°47' E 017°11'0 0.0
2018-Apr-17 13:29N 68°47' E 017°11'0 0.0
2018-Apr-17 12:59N 68°47' E 017°11'0 0.0
2018-Apr-17 12:29N 68°47' E 017°11'0 0.0
2018-Apr-17 11:58N 68°47' E 017°11'0 0.0
2018-Apr-17 11:28N 68°47' E 017°11'0 0.0
2018-Apr-17 10:58N 68°47' E 017°11'0 0.0
2018-Apr-17 10:30N 68°47' E 017°11'0 0.0
2018-Apr-17 10:00N 68°47' E 017°11'0 0.0
2018-Apr-17 09:30N 68°47' E 017°11'0 0.0
2018-Apr-17 09:00N 68°47' E 017°11'0 0.0
2018-Apr-17 08:30N 68°47' E 017°11'0 0.0
2018-Apr-17 07:59N 68°47' E 017°11'0 0.0
2018-Apr-17 07:28N 68°47' E 017°11'0 0.0
2018-Apr-17 06:58N 68°47' E 017°11'0 0.0
2018-Apr-17 06:28N 68°47' E 017°11'0 0.0
2018-Apr-17 05:57N 68°47' E 017°11'0 0.0
2018-Apr-17 05:30N 68°47' E 017°11'0 0.0
2018-Apr-17 05:00N 68°47' E 017°11'0 0.0
2018-Apr-17 04:30N 68°47' E 017°11'0 0.0
2018-Apr-17 03:59N 68°47' E 017°11'0 0.0
2018-Apr-17 03:29N 68°47' E 017°11'0 0.0
2018-Apr-17 02:59N 68°47' E 017°11'0 0.0
2018-Apr-17 02:28N 68°47' E 017°11'0 0.0
2018-Apr-17 01:59N 68°47' E 017°11'0 0.0
2018-Apr-17 01:29N 68°47' E 017°11'0 0.0
2018-Apr-17 00:58N 68°47' E 017°11'0 0.0
2018-Apr-17 00:28N 68°47' E 017°11'0 0.0
2018-Apr-16 23:58N 68°47' E 017°11'0 0.0
2018-Apr-16 23:30N 68°47' E 017°11'0 0.0
2018-Apr-16 23:00N 68°47' E 017°11'0 0.0
2018-Apr-16 22:30N 68°47' E 017°11'0 0.0
2018-Apr-16 22:00N 68°47' E 017°11'0 0.0
2018-Apr-16 21:29N 68°47' E 017°11'0 0.0
2018-Apr-16 20:59N 68°47' E 017°11'0 0.0
2018-Apr-16 20:30N 68°47' E 017°11'4 8.3
2018-Apr-16 20:00N 68°51' E 017°06'510.6
2018-Apr-16 19:31N 68°55' E 016°59'610.7
2018-Apr-16 19:00N 68°60' E 016°51'510.4
2018-Apr-16 18:30N 69°04' E 016°45'510.4
2018-Apr-16 18:00N 69°09' E 016°49'510.2
2018-Apr-16 17:30N 69°14' E 016°52'510.2
2018-Apr-16 17:00N 69°19' E 016°51'510.3
2018-Apr-16 16:31N 69°24' E 016°52'510.5
2018-Apr-16 16:00N 69°30' E 016°54'510.1
2018-Apr-16 15:29N 69°32' E 017°07'5 9.6
2018-Apr-16 15:00N 69°33' E 017°20'4 8.2
2018-Apr-16 14:30N 69°31' E 017°30'1 1.7
2018-Apr-16 14:00N 69°30' E 017°30'0 0.0
2018-Apr-16 13:30N 69°30' E 017°30'0 0.0
2018-Apr-16 13:01N 69°30' E 017°30'0 0.0
2018-Apr-16 12:29N 69°30' E 017°30'0 0.0
2018-Apr-16 11:58N 69°30' E 017°30'0 0.0
2018-Apr-16 11:30N 69°30' E 017°30'0 0.0
2018-Apr-16 11:01N 69°30' E 017°30'0 0.0
2018-Apr-16 10:30N 69°30' E 017°30'0 0.0
2018-Apr-16 09:59N 69°30' E 017°30'0 0.0
2018-Apr-16 09:28N 69°30' E 017°30'0 0.0
2018-Apr-16 09:01N 69°30' E 017°30'0 0.0
2018-Apr-16 08:30N 69°30' E 017°30'0 0.0
2018-Apr-16 07:55N 69°30' E 017°30'0 0.0
2018-Apr-16 07:30N 69°30' E 017°30'0 0.0
2018-Apr-16 07:00N 69°30' E 017°30'0 0.0
2018-Apr-16 06:28N 69°30' E 017°30'0 0.0
2018-Apr-16 05:57N 69°30' E 017°30'0 0.0
2018-Apr-16 05:29N 69°30' E 017°30'0 0.0
2018-Apr-16 04:59N 69°30' E 017°30'0 0.0
2018-Apr-16 04:29N 69°30' E 017°29'0 0.0
2018-Apr-16 04:00N 69°30' E 017°30'0 0.0
2018-Apr-16 03:30N 69°30' E 017°30'0 0.0
2018-Apr-16 02:51N 69°30' E 017°30'0 0.0
2018-Apr-16 02:30N 69°30' E 017°30'0 0.0
2018-Apr-16 02:01N 69°30' E 017°30'0 0.0
2018-Apr-16 01:30N 69°30' E 017°30'0 0.0
2018-Apr-16 00:59N 69°30' E 017°30'0 0.0
2018-Apr-16 00:29N 69°30' E 017°30'0 0.0
2018-Apr-15 23:58N 69°30' E 017°30'0 0.0
2018-Apr-15 23:30N 69°30' E 017°30'0 0.0
2018-Apr-15 22:59N 69°30' E 017°30'0 0.0
2018-Apr-15 22:30N 69°30' E 017°30'0 0.0
2018-Apr-15 21:59N 69°30' E 017°30'0 0.0
2018-Apr-15 21:30N 69°30' E 017°30'0 0.0
2018-Apr-15 20:45N 69°30' E 017°30'0 0.0
2018-Apr-15 20:10N 69°30' E 017°30'0 0.0
2018-Apr-15 19:35N 69°30' E 017°30'0 0.0
2018-Apr-15 18:37N 69°30' E 017°30'0 0.0
2018-Apr-15 18:26N 69°30' E 017°30'2 5.0
2018-Apr-15 18:00N 69°32' E 017°29'5 9.6
2018-Apr-15 17:30N 69°37' E 017°29'5 9.1
2018-Apr-15 17:00N 69°39' E 017°40'510.4
2018-Apr-15 16:30N 69°36' E 017°53'510.7
2018-Apr-15 16:00N 69°32' E 018°04'510.0
2018-Apr-15 15:30N 69°31' E 018°18'510.6
2018-Apr-15 15:00N 69°32' E 018°33'612.0
2018-Apr-15 14:28N 69°35' E 018°49'510.9
2018-Apr-15 14:00N 69°39' E 018°58'0 0.3
2018-Apr-15 13:30N 69°39' E 018°58'0 0.0
2018-Apr-15 12:59N 69°39' E 018°58'0 0.0
2018-Apr-15 12:30N 69°39' E 018°58'0 0.0
2018-Apr-15 12:00N 69°39' E 018°58'0 0.0
2018-Apr-15 11:30N 69°39' E 018°58'0 0.0
2018-Apr-15 11:00N 69°39' E 018°58'0 0.0
2018-Apr-15 10:30N 69°39' E 018°58'0 0.0
2018-Apr-15 10:00N 69°39' E 018°58'0 0.0
2018-Apr-15 09:28N 69°39' E 018°58'4 7.6
2018-Apr-15 09:00N 69°36' E 018°52'611.4
2018-Apr-15 08:30N 69°33' E 018°38'510.8
2018-Apr-15 08:00N 69°32' E 018°23'5 9.9
2018-Apr-15 07:29N 69°31' E 018°09'5 9.9
2018-Apr-15 07:00N 69°35' E 017°59'3 6.7
2018-Apr-15 06:30N 69°38' E 018°00'0 0.2
2018-Apr-15 06:00N 69°38' E 018°00'0 0.0
2018-Apr-15 05:30N 69°38' E 018°00'0 0.0
2018-Apr-15 04:59N 69°38' E 018°00'0 0.0
2018-Apr-15 04:29N 69°38' E 018°00'0 0.0
2018-Apr-15 03:59N 69°38' E 018°00'0 0.0
2018-Apr-15 03:30N 69°38' E 018°00'0 0.0
2018-Apr-15 02:59N 69°38' E 018°00'0 0.0
2018-Apr-15 02:29N 69°38' E 018°00'0 0.0
2018-Apr-15 02:00N 69°38' E 018°00'0 0.0
2018-Apr-15 01:30N 69°38' E 018°00'0 0.0
2018-Apr-15 01:00N 69°38' E 018°00'0 0.0
2018-Apr-15 00:29N 69°38' E 018°00'0 0.0
2018-Apr-14 23:59N 69°38' E 018°00'0 0.0
2018-Apr-14 23:30N 69°38' E 018°00'0 0.2
2018-Apr-14 23:00N 69°38' E 018°00'4 7.2
2018-Apr-14 22:30N 69°34' E 017°59'510.4
2018-Apr-14 22:00N 69°29' E 018°05'510.5
2018-Apr-14 21:30N 69°24' E 018°06'5 9.6
2018-Apr-14 21:00N 69°20' E 018°01'5 9.8
2018-Apr-14 20:30N 69°15' E 017°58'4 8.7
2018-Apr-14 20:00N 69°11' E 017°59'510.4
2018-Apr-14 19:29N 69°08' E 017°46'510.3
2018-Apr-14 19:00N 69°06' E 017°32'510.0
2018-Apr-14 18:30N 69°04' E 017°21'510.3
2018-Apr-14 18:00N 68°59' E 017°13'510.6
2018-Apr-14 17:30N 68°55' E 017°04'510.3
2018-Apr-14 17:00N 68°50' E 017°08'3 6.6
2018-Apr-14 16:29N 68°47' E 017°11'0 0.0
2018-Apr-14 16:00N 68°47' E 017°11'0 0.0
2018-Apr-14 15:30N 68°47' E 017°11'0 0.0
2018-Apr-14 15:00N 68°47' E 017°11'0 0.1
2018-Apr-14 14:29N 68°47' E 017°11'0 0.1
2018-Apr-14 14:00N 68°47' E 017°11'0 0.0
2018-Apr-14 13:30N 68°47' E 017°11'0 0.0
2018-Apr-14 13:00N 68°47' E 017°11'0 0.0
2018-Apr-14 12:29N 68°47' E 017°11'0 0.0
2018-Apr-14 11:59N 68°47' E 017°11'0 0.0
2018-Apr-14 11:29N 68°47' E 017°11'0 0.0
2018-Apr-14 10:58N 68°47' E 017°11'0 0.0
2018-Apr-14 10:28N 68°47' E 017°11'0 0.0
2018-Apr-14 09:58N 68°47' E 017°11'0 0.0
2018-Apr-14 09:30N 68°47' E 017°11'0 0.0
2018-Apr-14 09:00N 68°47' E 017°11'0 0.0
2018-Apr-14 08:30N 68°47' E 017°11'0 0.0
2018-Apr-14 07:59N 68°47' E 017°11'0 0.0
2018-Apr-14 07:29N 68°47' E 017°11'0 0.0
2018-Apr-14 06:59N 68°47' E 017°11'0 0.0
2018-Apr-14 06:29N 68°47' E 017°11'0 0.0
2018-Apr-14 05:58N 68°47' E 017°11'0 0.0
2018-Apr-14 05:28N 68°47' E 017°11'0 0.1
2018-Apr-14 04:57N 68°47' E 017°11'0 0.1
2018-Apr-14 04:30N 68°47' E 017°11'0 0.0
2018-Apr-14 04:00N 68°47' E 017°11'0 0.0
2018-Apr-14 03:29N 68°47' E 017°11'0 0.0
2018-Apr-14 02:59N 68°47' E 017°11'0 0.0
2018-Apr-14 02:29N 68°47' E 017°11'0 0.0
2018-Apr-14 01:59N 68°47' E 017°11'0 0.0
2018-Apr-14 01:28N 68°47' E 017°11'0 0.0
2018-Apr-14 00:58N 68°47' E 017°11'0 0.0
2018-Apr-14 00:28N 68°47' E 017°11'0 0.0
2018-Apr-14 00:00N 68°47' E 017°11'0 0.0
2018-Apr-13 23:30N 68°47' E 017°11'0 0.0
2018-Apr-13 23:00N 68°47' E 017°11'0 0.0
2018-Apr-13 22:30N 68°47' E 017°11'0 0.0
2018-Apr-13 21:59N 68°47' E 017°11'0 0.7
2018-Apr-13 21:30N 68°46' E 017°11'5 9.4
2018-Apr-13 21:00N 68°44' E 017°01'510.2
2018-Apr-13 20:30N 68°42' E 016°48'5 9.9
2018-Apr-13 20:00N 68°39' E 016°37'5 9.9
2018-Apr-13 19:30N 68°34' E 016°32'4 8.5
2018-Apr-13 19:00N 68°34' E 016°21'5 9.0
2018-Apr-13 18:30N 68°31' E 016°10'510.1
2018-Apr-13 18:00N 68°27' E 016°04'510.2
2018-Apr-13 17:30N 68°22' E 015°58'510.0
2018-Apr-13 17:00N 68°19' E 015°47'510.1
2018-Apr-13 16:29N 68°16' E 015°35'510.1
2018-Apr-13 16:00N 68°14' E 015°23'510.1
2018-Apr-13 15:30N 68°13' E 015°10'510.0
2018-Apr-13 15:00N 68°13' E 014°56'510.3
2018-Apr-13 14:30N 68°14' E 014°43'3 6.2
2018-Apr-13 14:00N 68°14' E 014°35'0 0.1
2018-Apr-13 13:30N 68°14' E 014°35'0 0.0
2018-Apr-13 13:00N 68°14' E 014°35'0 0.0
2018-Apr-13 12:30N 68°14' E 014°35'0 0.0
2018-Apr-13 12:00N 68°14' E 014°35'0 0.0
2018-Apr-13 11:30N 68°14' E 014°35'0 0.0
2018-Apr-13 11:00N 68°14' E 014°35'0 0.0
2018-Apr-13 10:30N 68°14' E 014°35'0 0.0
2018-Apr-13 10:00N 68°14' E 014°35'0 0.0
2018-Apr-13 09:30N 68°14' E 014°35'0 0.0
2018-Apr-13 09:00N 68°14' E 014°35'0 0.0
2018-Apr-13 08:30N 68°14' E 014°35'0 0.0
2018-Apr-13 08:00N 68°14' E 014°35'0 0.0
2018-Apr-13 07:30N 68°14' E 014°35'0 0.0
2018-Apr-13 07:00N 68°14' E 014°35'0 0.0
2018-Apr-13 06:28N 68°14' E 014°35'0 0.0
2018-Apr-13 06:00N 68°14' E 014°35'0 0.0
2018-Apr-13 05:30N 68°14' E 014°35'0 0.0
2018-Apr-13 05:00N 68°14' E 014°35'0 0.0
2018-Apr-13 04:30N 68°14' E 014°35'0 0.0
2018-Apr-13 04:00N 68°14' E 014°35'0 0.0
2018-Apr-13 03:30N 68°14' E 014°35'0 0.0
2018-Apr-13 03:00N 68°14' E 014°35'0 0.0
2018-Apr-13 02:30N 68°14' E 014°35'0 0.0
2018-Apr-13 02:00N 68°14' E 014°35'0 0.0
2018-Apr-13 01:30N 68°14' E 014°35'0 0.0
2018-Apr-13 01:00N 68°14' E 014°35'0 0.0
2018-Apr-13 00:30N 68°14' E 014°35'0 0.0
2018-Apr-13 00:00N 68°14' E 014°35'0 0.0
2018-Apr-12 23:30N 68°14' E 014°35'0 0.0
2018-Apr-12 23:00N 68°14' E 014°35'0 0.0
2018-Apr-12 22:30N 68°14' E 014°35'0 0.0
2018-Apr-12 22:00N 68°14' E 014°35'0 0.0
2018-Apr-12 21:30N 68°14' E 014°35'0 0.0
2018-Apr-12 21:00N 68°14' E 014°35'2 3.9
2018-Apr-12 20:30N 68°12' E 014°33'1 2.4
2018-Apr-12 19:59N 68°13' E 014°36'1 1.4
2018-Apr-12 19:29N 68°13' E 014°36'1 1.5
2018-Apr-12 18:59N 68°14' E 014°34'0 0.0
2018-Apr-12 18:25N 68°14' E 014°34'0 0.0
2018-Apr-12 18:00N 68°14' E 014°34'0 0.0
2018-Apr-12 17:30N 68°14' E 014°34'0 0.0
2018-Apr-12 17:00N 68°14' E 014°34'  
Track history (hours):
 
Tides and Currents Weather Stations Pressure Air Temp Water Temp Dewpoint Dewpoint Depression Visibility Wind Speed Wind Dir Waves Ship Positions

Gamle Salten

Last reported at 2018-Apr-22 16:30 UTC. Time now 2018-Apr-22 16:34 UTC.
Position N 69°32' E 018°04'.

Length 48 m; draft 5 m.

Type: Passenger vessel. MMSI: 258178000.

Date/timePositionNaut miles runAvg speedWind from/ knotsBaromVisibWave heightAir tempDewpointWater temp
2018-Apr-22 16:30N 69°32' E 018°04'5 9.7
2018-Apr-22 16:00N 69°31' E 018°18'610.7
2018-Apr-22 15:29N 69°32' E 018°33'5 9.2
2018-Apr-22 15:00N 69°34' E 018°46'5 9.7
2018-Apr-22 14:30N 69°37' E 018°55'2 3.5
2018-Apr-22 13:58N 69°39' E 018°57'0 0.1
2018-Apr-22 13:30N 69°39' E 018°57'0 0.1
2018-Apr-22 13:00N 69°39' E 018°57'0 0.0
2018-Apr-22 12:30N 69°39' E 018°57'0 0.0
2018-Apr-22 11:59N 69°39' E 018°57'0 0.0
2018-Apr-22 11:29N 69°39' E 018°57'0 0.1
2018-Apr-22 11:00N 69°39' E 018°57'0 0.1
2018-Apr-22 10:30N 69°39' E 018°57'0 0.0
2018-Apr-22 10:00N 69°39' E 018°57'1 1.5
2018-Apr-22 09:30N 69°38' E 018°57'510.0
2018-Apr-22 09:00N 69°34' E 018°48'4 7.9
2018-Apr-22 08:30N 69°33' E 018°37'5 9.9
2018-Apr-22 08:00N 69°32' E 018°23'5 9.9
2018-Apr-22 07:30N 69°31' E 018°09'5 9.9
2018-Apr-22 07:00N 69°35' E 017°59'3 6.3
2018-Apr-22 06:28N 69°38' E 018°00'0 0.2
2018-Apr-22 05:59N 69°38' E 018°00'0 0.0
2018-Apr-22 05:28N 69°38' E 018°00'0 0.0
2018-Apr-22 04:58N 69°38' E 018°00'0 0.0
2018-Apr-22 04:28N 69°38' E 018°00'0 0.0
2018-Apr-22 03:58N 69°38' E 018°00'0 0.0
2018-Apr-22 03:30N 69°38' E 018°00'0 0.0
2018-Apr-22 03:00N 69°38' E 018°00'0 0.0
2018-Apr-22 02:30N 69°38' E 018°00'0 0.0
2018-Apr-22 01:59N 69°38' E 018°00'0 0.0
2018-Apr-22 01:29N 69°38' E 018°00'0 0.0
2018-Apr-22 00:59N 69°38' E 018°00'0 0.0
2018-Apr-22 00:28N 69°38' E 018°00'0 0.0
2018-Apr-21 23:58N 69°38' E 018°00'0 0.0
2018-Apr-21 23:28N 69°38' E 018°00'0 0.0
2018-Apr-21 22:58N 69°38' E 018°00'0 0.0
2018-Apr-21 22:30N 69°38' E 018°00'0 0.0
2018-Apr-21 22:00N 69°38' E 018°00'0 0.0
2018-Apr-21 21:30N 69°38' E 018°00'0 0.0
2018-Apr-21 20:59N 69°38' E 018°00'0 0.0
2018-Apr-21 20:30N 69°38' E 018°00'2 4.6
2018-Apr-21 20:00N 69°36' E 017°57'510.5
2018-Apr-21 19:30N 69°31' E 018°03'510.3
2018-Apr-21 18:59N 69°26' E 018°07'510.5
2018-Apr-21 18:30N 69°21' E 018°05'5 9.9
2018-Apr-21 17:59N 69°16' E 017°58'5 9.6
2018-Apr-21 17:30N 69°12' E 018°01'5 9.7
2018-Apr-21 16:59N 69°09' E 017°49'510.4
2018-Apr-21 16:30N 69°07' E 017°36'510.5
2018-Apr-21 16:00N 69°05' E 017°23'510.5
2018-Apr-21 15:30N 69°00' E 017°15'610.7
2018-Apr-21 14:59N 68°56' E 017°06'510.0
2018-Apr-21 14:30N 68°51' E 017°07'4 8.6
2018-Apr-21 13:59N 68°47' E 017°11'0 0.0
2018-Apr-21 13:30N 68°47' E 017°11'0 0.0
2018-Apr-21 13:00N 68°47' E 017°11'0 0.0
2018-Apr-21 12:30N 68°47' E 017°11'0 0.0
2018-Apr-21 12:00N 68°47' E 017°11'0 0.0
2018-Apr-21 11:29N 68°47' E 017°11'0 0.0
2018-Apr-21 10:59N 68°47' E 017°11'0 0.0
2018-Apr-21 10:26N 68°47' E 017°11'0 0.0
2018-Apr-21 09:58N 68°47' E 017°11'0 0.0
2018-Apr-21 09:28N 68°47' E 017°11'0 0.0
2018-Apr-21 08:58N 68°47' E 017°11'0 0.0
2018-Apr-21 08:30N 68°47' E 017°11'0 0.0
2018-Apr-21 07:59N 68°47' E 017°11'0 0.0
2018-Apr-21 07:29N 68°47' E 017°11'0 0.0
2018-Apr-21 06:58N 68°47' E 017°11'0 0.0
2018-Apr-21 06:28N 68°47' E 017°11'0 0.0
2018-Apr-21 05:58N 68°47' E 017°11'0 0.0
2018-Apr-21 05:30N 68°47' E 017°11'0 0.0
2018-Apr-21 05:00N 68°47' E 017°11'0 0.0
2018-Apr-21 04:30N 68°47' E 017°11'0 0.0
2018-Apr-21 03:59N 68°47' E 017°11'0 0.0
2018-Apr-21 03:29N 68°47' E 017°11'0 0.0
2018-Apr-21 02:59N 68°47' E 017°11'0 0.0
2018-Apr-21 02:29N 68°47' E 017°11'0 0.0
2018-Apr-21 01:58N 68°47' E 017°11'0 0.0
2018-Apr-21 01:28N 68°47' E 017°11'0 0.0
2018-Apr-21 00:58N 68°47' E 017°11'0 0.0
2018-Apr-21 00:30N 68°47' E 017°11'0 0.0
2018-Apr-21 00:00N 68°47' E 017°11'0 0.0
2018-Apr-20 23:30N 68°47' E 017°11'0 0.0
2018-Apr-20 22:59N 68°47' E 017°11'0 0.0
2018-Apr-20 22:29N 68°47' E 017°11'0 0.0
2018-Apr-20 21:59N 68°47' E 017°11'0 0.0
2018-Apr-20 21:29N 68°47' E 017°11'0 0.0
2018-Apr-20 20:58N 68°47' E 017°11'0 0.0
2018-Apr-20 20:28N 68°47' E 017°11'0 0.0
2018-Apr-20 19:58N 68°47' E 017°11'0 0.0
2018-Apr-20 19:30N 68°47' E 017°11'0 0.0
2018-Apr-20 19:00N 68°47' E 017°11'0 0.0
2018-Apr-20 18:30N 68°47' E 017°11'0 0.0
2018-Apr-20 18:00N 68°47' E 017°11'0 0.1
2018-Apr-20 17:29N 68°47' E 017°11'4 8.7
2018-Apr-20 17:00N 68°44' E 017°02'510.3
2018-Apr-20 16:30N 68°42' E 016°50'510.6
2018-Apr-20 16:00N 68°39' E 016°37'611.5
2018-Apr-20 15:30N 68°34' E 016°31'611.1
2018-Apr-20 15:00N 68°33' E 016°16'610.8
2018-Apr-20 14:29N 68°29' E 016°06'4 8.1
2018-Apr-20 13:57N 68°25' E 015°60'0 0.0
2018-Apr-20 13:30N 68°25' E 015°60'0 0.0
2018-Apr-20 13:00N 68°25' E 015°60'0 0.0
2018-Apr-20 12:31N 68°25' E 015°60'0 0.0
2018-Apr-20 12:00N 68°25' E 015°60'0 0.0
2018-Apr-20 11:31N 68°25' E 015°60'0 0.0
2018-Apr-20 11:01N 68°25' E 015°60'0 0.0
2018-Apr-20 10:30N 68°25' E 015°60'0 0.0
2018-Apr-20 10:00N 68°25' E 015°60'0 0.0
2018-Apr-20 09:30N 68°25' E 015°60'0 0.0
2018-Apr-20 09:01N 68°25' E 015°60'0 0.0
2018-Apr-20 08:30N 68°25' E 015°60'0 0.0
2018-Apr-20 08:00N 68°25' E 015°60'0 0.0
2018-Apr-20 07:30N 68°25' E 015°60'0 0.0
2018-Apr-20 06:59N 68°25' E 015°60'0 0.0
2018-Apr-20 06:30N 68°25' E 015°60'0 0.0
2018-Apr-20 06:00N 68°25' E 015°60'0 0.0
2018-Apr-20 05:30N 68°25' E 015°60'0 0.0
2018-Apr-20 05:00N 68°25' E 015°60'0 0.0
2018-Apr-20 04:30N 68°25' E 015°60'0 0.0
2018-Apr-20 04:00N 68°25' E 015°60'0 0.0
2018-Apr-20 03:30N 68°25' E 015°60'0 0.0
2018-Apr-20 03:00N 68°25' E 015°60'0 0.0
2018-Apr-20 02:30N 68°25' E 015°60'0 0.0
2018-Apr-20 02:00N 68°25' E 015°60'0 0.0
2018-Apr-20 01:30N 68°25' E 015°60'0 0.0
2018-Apr-20 01:00N 68°25' E 015°60'0 0.0
2018-Apr-20 00:30N 68°25' E 015°60'0 0.0
2018-Apr-20 00:00N 68°25' E 015°60'1 1.9
2018-Apr-19 23:30N 68°24' E 016°01'510.2
2018-Apr-19 23:00N 68°20' E 015°51'510.2
2018-Apr-19 22:30N 68°18' E 015°40'510.0
2018-Apr-19 22:00N 68°15' E 015°28'510.1
2018-Apr-19 21:31N 68°14' E 015°15'510.0
2018-Apr-19 21:00N 68°13' E 015°02'510.0
2018-Apr-19 20:30N 68°13' E 014°48'5 9.7
2018-Apr-19 20:00N 68°13' E 014°35'1 1.5
2018-Apr-19 19:31N 68°14' E 014°34'0 0.0
2018-Apr-19 18:59N 68°14' E 014°34'0 0.0
2018-Apr-19 18:29N 68°14' E 014°34'0 0.0
2018-Apr-19 18:00N 68°14' E 014°34'0 0.0
2018-Apr-19 17:30N 68°14' E 014°34'0 0.0
2018-Apr-19 17:01N 68°14' E 014°34'0 0.0
2018-Apr-19 16:30N 68°14' E 014°34'0 0.0
2018-Apr-19 16:01N 68°14' E 014°34'0 0.0
2018-Apr-19 15:30N 68°14' E 014°34'0 0.0
2018-Apr-19 15:00N 68°14' E 014°34'0 0.0
2018-Apr-19 14:30N 68°14' E 014°34'0 0.0
2018-Apr-19 14:00N 68°14' E 014°34'0 0.0
2018-Apr-19 13:30N 68°14' E 014°34'0 0.0
2018-Apr-19 13:00N 68°14' E 014°34'0 0.0
2018-Apr-19 12:30N 68°14' E 014°34'0 0.0
2018-Apr-19 12:00N 68°14' E 014°34'0 0.0
2018-Apr-19 11:29N 68°14' E 014°34'0 0.0
2018-Apr-19 11:00N 68°14' E 014°34'0 0.0
2018-Apr-19 10:30N 68°14' E 014°34'0 0.0
2018-Apr-19 10:00N 68°14' E 014°34'0 0.0
2018-Apr-19 09:31N 68°14' E 014°34'0 0.0
2018-Apr-19 09:01N 68°14' E 014°34'0 0.0
2018-Apr-19 08:30N 68°14' E 014°34'0 0.0
2018-Apr-19 07:59N 68°14' E 014°34'0 0.0
2018-Apr-19 07:28N 68°14' E 014°34'0 0.0
2018-Apr-19 07:00N 68°14' E 014°34'0 0.0
2018-Apr-19 06:30N 68°14' E 014°34'0 0.0
2018-Apr-19 06:00N 68°14' E 014°34'0 0.0
2018-Apr-19 05:30N 68°14' E 014°34'0 0.0
2018-Apr-19 05:00N 68°14' E 014°34'0 0.0
2018-Apr-19 04:30N 68°14' E 014°34'0 0.0
2018-Apr-19 04:00N 68°14' E 014°34'0 0.0
2018-Apr-19 03:29N 68°14' E 014°34'0 0.0
2018-Apr-19 02:59N 68°14' E 014°34'0 0.0
2018-Apr-19 02:30N 68°14' E 014°34'0 0.0
2018-Apr-19 02:00N 68°14' E 014°34'0 0.0
2018-Apr-19 01:30N 68°14' E 014°34'0 0.0
2018-Apr-19 00:59N 68°14' E 014°34'0 0.0
2018-Apr-19 00:30N 68°14' E 014°34'0 0.0
2018-Apr-19 00:00N 68°14' E 014°34'0 0.0
2018-Apr-18 23:30N 68°14' E 014°34'0 0.0
2018-Apr-18 22:59N 68°14' E 014°34'0 0.0
2018-Apr-18 22:30N 68°14' E 014°34'0 0.0
2018-Apr-18 22:00N 68°14' E 014°34'0 0.0
2018-Apr-18 21:30N 68°14' E 014°34'0 0.0
2018-Apr-18 21:00N 68°14' E 014°34'0 0.0
2018-Apr-18 20:30N 68°14' E 014°34'0 0.0
2018-Apr-18 20:01N 68°14' E 014°34'0 0.0
2018-Apr-18 19:31N 68°14' E 014°34'0 0.0
2018-Apr-18 19:00N 68°14' E 014°34'0 0.0
2018-Apr-18 18:30N 68°14' E 014°34'0 0.0
2018-Apr-18 18:00N 68°14' E 014°34'0 0.0
2018-Apr-18 17:30N 68°14' E 014°34'0 0.0
2018-Apr-18 17:01N 68°14' E 014°34'0 0.0
2018-Apr-18 16:30N 68°14' E 014°34'0 0.0
2018-Apr-18 16:00N 68°14' E 014°34'0 0.0
2018-Apr-18 15:30N 68°14' E 014°34'0 0.0
2018-Apr-18 15:00N 68°14' E 014°34'0 0.0
2018-Apr-18 14:31N 68°14' E 014°34'0 0.0
2018-Apr-18 14:01N 68°14' E 014°34'0 0.0
2018-Apr-18 13:30N 68°14' E 014°34'0 0.0
2018-Apr-18 13:01N 68°14' E 014°34'0 0.0
2018-Apr-18 12:31N 68°14' E 014°34'0 0.0
2018-Apr-18 12:00N 68°14' E 014°34'0 0.0
2018-Apr-18 11:30N 68°14' E 014°34'0 0.0
2018-Apr-18 11:01N 68°14' E 014°34'0 0.0
2018-Apr-18 10:30N 68°14' E 014°34'0 0.0
2018-Apr-18 10:00N 68°14' E 014°34'0 0.0
2018-Apr-18 09:30N 68°14' E 014°34'0 0.0
2018-Apr-18 09:00N 68°14' E 014°34'0 0.0
2018-Apr-18 08:30N 68°14' E 014°34'0 0.2
2018-Apr-18 08:00N 68°14' E 014°34'0 0.5
2018-Apr-18 07:30N 68°14' E 014°35'0 0.0
2018-Apr-18 07:01N 68°14' E 014°35'0 0.0
2018-Apr-18 06:31N 68°14' E 014°35'0 0.0
2018-Apr-18 06:00N 68°14' E 014°35'0 0.0
2018-Apr-18 05:31N 68°14' E 014°35'0 0.0
2018-Apr-18 05:00N 68°14' E 014°35'0 0.0
2018-Apr-18 04:30N 68°14' E 014°35'0 0.0
2018-Apr-18 04:00N 68°14' E 014°35'0 0.0
2018-Apr-18 03:30N 68°14' E 014°35'0 0.0
2018-Apr-18 03:00N 68°14' E 014°35'0 0.0
2018-Apr-18 02:30N 68°14' E 014°35'0 0.0
2018-Apr-18 01:59N 68°14' E 014°35'0 0.0
2018-Apr-18 01:30N 68°14' E 014°35'0 0.0
2018-Apr-18 01:00N 68°14' E 014°35'0 0.0
2018-Apr-18 00:30N 68°14' E 014°35'0 0.0
2018-Apr-18 00:00N 68°14' E 014°35'0 0.0
2018-Apr-17 23:30N 68°14' E 014°35'0 0.0
2018-Apr-17 23:01N 68°14' E 014°35'0 0.0
2018-Apr-17 22:31N 68°14' E 014°35'0 0.0
2018-Apr-17 22:00N 68°14' E 014°35'0 0.4
2018-Apr-17 21:30N 68°14' E 014°34'4 7.4
2018-Apr-17 21:00N 68°14' E 014°44'510.2
2018-Apr-17 20:31N 68°13' E 014°57'510.6
2018-Apr-17 20:00N 68°14' E 015°12'510.3
2018-Apr-17 19:30N 68°15' E 015°25'510.1
2018-Apr-17 19:00N 68°17' E 015°37'510.5
2018-Apr-17 18:30N 68°20' E 015°50'510.0
2018-Apr-17 18:00N 68°23' E 015°60'510.4
2018-Apr-17 17:30N 68°28' E 016°06'510.4
2018-Apr-17 16:59N 68°33' E 016°13'510.8
2018-Apr-17 16:30N 68°33' E 016°27'5 9.6
2018-Apr-17 16:00N 68°37' E 016°34'5 9.6
2018-Apr-17 15:30N 68°41' E 016°43'510.4
2018-Apr-17 15:00N 68°43' E 016°56'4 8.3
2018-Apr-17 14:30N 68°45' E 017°07'3 5.2
2018-Apr-17 14:00N 68°47' E 017°11'0 0.0
2018-Apr-17 13:29N 68°47' E 017°11'0 0.0
2018-Apr-17 12:59N 68°47' E 017°11'0 0.0
2018-Apr-17 12:29N 68°47' E 017°11'0 0.0
2018-Apr-17 11:58N 68°47' E 017°11'0 0.0
2018-Apr-17 11:28N 68°47' E 017°11'0 0.0
2018-Apr-17 10:58N 68°47' E 017°11'0 0.0
2018-Apr-17 10:30N 68°47' E 017°11'0 0.0
2018-Apr-17 10:00N 68°47' E 017°11'0 0.0
2018-Apr-17 09:30N 68°47' E 017°11'0 0.0
2018-Apr-17 09:00N 68°47' E 017°11'0 0.0
2018-Apr-17 08:30N 68°47' E 017°11'0 0.0
2018-Apr-17 07:59N 68°47' E 017°11'0 0.0
2018-Apr-17 07:28N 68°47' E 017°11'0 0.0
2018-Apr-17 06:58N 68°47' E 017°11'0 0.0
2018-Apr-17 06:28N 68°47' E 017°11'0 0.0
2018-Apr-17 05:57N 68°47' E 017°11'0 0.0
2018-Apr-17 05:30N 68°47' E 017°11'0 0.0
2018-Apr-17 05:00N 68°47' E 017°11'0 0.0
2018-Apr-17 04:30N 68°47' E 017°11'0 0.0
2018-Apr-17 03:59N 68°47' E 017°11'0 0.0
2018-Apr-17 03:29N 68°47' E 017°11'0 0.0
2018-Apr-17 02:59N 68°47' E 017°11'0 0.0
2018-Apr-17 02:28N 68°47' E 017°11'0 0.0
2018-Apr-17 01:59N 68°47' E 017°11'0 0.0
2018-Apr-17 01:29N 68°47' E 017°11'0 0.0
2018-Apr-17 00:58N 68°47' E 017°11'0 0.0
2018-Apr-17 00:28N 68°47' E 017°11'0 0.0
2018-Apr-16 23:58N 68°47' E 017°11'0 0.0
2018-Apr-16 23:30N 68°47' E 017°11'0 0.0
2018-Apr-16 23:00N 68°47' E 017°11'0 0.0
2018-Apr-16 22:30N 68°47' E 017°11'0 0.0
2018-Apr-16 22:00N 68°47' E 017°11'0 0.0
2018-Apr-16 21:29N 68°47' E 017°11'0 0.0
2018-Apr-16 20:59N 68°47' E 017°11'0 0.0
2018-Apr-16 20:30N 68°47' E 017°11'4 8.3
2018-Apr-16 20:00N 68°51' E 017°06'510.6
2018-Apr-16 19:31N 68°55' E 016°59'610.7
2018-Apr-16 19:00N 68°60' E 016°51'510.4
2018-Apr-16 18:30N 69°04' E 016°45'510.4
2018-Apr-16 18:00N 69°09' E 016°49'510.2
2018-Apr-16 17:30N 69°14' E 016°52'510.2
2018-Apr-16 17:00N 69°19' E 016°51'510.3
2018-Apr-16 16:31N 69°24' E 016°52'510.5
2018-Apr-16 16:00N 69°30' E 016°54'510.1
2018-Apr-16 15:29N 69°32' E 017°07'5 9.6
2018-Apr-16 15:00N 69°33' E 017°20'4 8.2
2018-Apr-16 14:30N 69°31' E 017°30'1 1.7
2018-Apr-16 14:00N 69°30' E 017°30'0 0.0
2018-Apr-16 13:30N 69°30' E 017°30'0 0.0
2018-Apr-16 13:01N 69°30' E 017°30'0 0.0
2018-Apr-16 12:29N 69°30' E 017°30'0 0.0
2018-Apr-16 11:58N 69°30' E 017°30'0 0.0
2018-Apr-16 11:30N 69°30' E 017°30'0 0.0
2018-Apr-16 11:01N 69°30' E 017°30'0 0.0
2018-Apr-16 10:30N 69°30' E 017°30'0 0.0
2018-Apr-16 09:59N 69°30' E 017°30'0 0.0
2018-Apr-16 09:28N 69°30' E 017°30'0 0.0
2018-Apr-16 09:01N 69°30' E 017°30'0 0.0
2018-Apr-16 08:30N 69°30' E 017°30'0 0.0
2018-Apr-16 07:55N 69°30' E 017°30'0 0.0
2018-Apr-16 07:30N 69°30' E 017°30'0 0.0
2018-Apr-16 07:00N 69°30' E 017°30'0 0.0
2018-Apr-16 06:28N 69°30' E 017°30'0 0.0
2018-Apr-16 05:57N 69°30' E 017°30'0 0.0
2018-Apr-16 05:29N 69°30' E 017°30'0 0.0
2018-Apr-16 04:59N 69°30' E 017°30'0 0.0
2018-Apr-16 04:29N 69°30' E 017°29'0 0.0
2018-Apr-16 04:00N 69°30' E 017°30'0 0.0
2018-Apr-16 03:30N 69°30' E 017°30'0 0.0
2018-Apr-16 02:51N 69°30' E 017°30'0 0.0
2018-Apr-16 02:30N 69°30' E 017°30'0 0.0
2018-Apr-16 02:01N 69°30' E 017°30'0 0.0
2018-Apr-16 01:30N 69°30' E 017°30'0 0.0
2018-Apr-16 00:59N 69°30' E 017°30'0 0.0
2018-Apr-16 00:29N 69°30' E 017°30'0 0.0
2018-Apr-15 23:58N 69°30' E 017°30'0 0.0
2018-Apr-15 23:30N 69°30' E 017°30'0 0.0
2018-Apr-15 22:59N 69°30' E 017°30'0 0.0
2018-Apr-15 22:30N 69°30' E 017°30'0 0.0
2018-Apr-15 21:59N 69°30' E 017°30'0 0.0
2018-Apr-15 21:30N 69°30' E 017°30'0 0.0
2018-Apr-15 20:45N 69°30' E 017°30'0 0.0
2018-Apr-15 20:10N 69°30' E 017°30'0 0.0
2018-Apr-15 19:35N 69°30' E 017°30'0 0.0
2018-Apr-15 18:37N 69°30' E 017°30'0 0.0
2018-Apr-15 18:26N 69°30' E 017°30'2 5.0
2018-Apr-15 18:00N 69°32' E 017°29'5 9.6
2018-Apr-15 17:30N 69°37' E 017°29'5 9.1
2018-Apr-15 17:00N 69°39' E 017°40'510.4
2018-Apr-15 16:30N 69°36' E 017°53'510.7
2018-Apr-15 16:00N 69°32' E 018°04'510.0
2018-Apr-15 15:30N 69°31' E 018°18'510.6
2018-Apr-15 15:00N 69°32' E 018°33'612.0
2018-Apr-15 14:28N 69°35' E 018°49'510.9
2018-Apr-15 14:00N 69°39' E 018°58'0 0.3
2018-Apr-15 13:30N 69°39' E 018°58'0 0.0
2018-Apr-15 12:59N 69°39' E 018°58'0 0.0
2018-Apr-15 12:30N 69°39' E 018°58'0 0.0
2018-Apr-15 12:00N 69°39' E 018°58'0 0.0
2018-Apr-15 11:30N 69°39' E 018°58'0 0.0
2018-Apr-15 11:00N 69°39' E 018°58'0 0.0
2018-Apr-15 10:30N 69°39' E 018°58'0 0.0
2018-Apr-15 10:00N 69°39' E 018°58'0 0.0
2018-Apr-15 09:28N 69°39' E 018°58'4 7.6
2018-Apr-15 09:00N 69°36' E 018°52'611.4
2018-Apr-15 08:30N 69°33' E 018°38'510.8
2018-Apr-15 08:00N 69°32' E 018°23'5 9.9
2018-Apr-15 07:29N 69°31' E 018°09'5 9.9
2018-Apr-15 07:00N 69°35' E 017°59'3 6.7
2018-Apr-15 06:30N 69°38' E 018°00'0 0.2
2018-Apr-15 06:00N 69°38' E 018°00'0 0.0
2018-Apr-15 05:30N 69°38' E 018°00'0 0.0
2018-Apr-15 04:59N 69°38' E 018°00'0 0.0
2018-Apr-15 04:29N 69°38' E 018°00'0 0.0
2018-Apr-15 03:59N 69°38' E 018°00'0 0.0
2018-Apr-15 03:30N 69°38' E 018°00'0 0.0
2018-Apr-15 02:59N 69°38' E 018°00'0 0.0
2018-Apr-15 02:29N 69°38' E 018°00'0 0.0
2018-Apr-15 02:00N 69°38' E 018°00'0 0.0
2018-Apr-15 01:30N 69°38' E 018°00'0 0.0
2018-Apr-15 01:00N 69°38' E 018°00'0 0.0
2018-Apr-15 00:29N 69°38' E 018°00'0 0.0
2018-Apr-14 23:59N 69°38' E 018°00'0 0.0
2018-Apr-14 23:30N 69°38' E 018°00'0 0.2
2018-Apr-14 23:00N 69°38' E 018°00'4 7.2
2018-Apr-14 22:30N 69°34' E 017°59'510.4
2018-Apr-14 22:00N 69°29' E 018°05'510.5
2018-Apr-14 21:30N 69°24' E 018°06'5 9.6
2018-Apr-14 21:00N 69°20' E 018°01'5 9.8
2018-Apr-14 20:30N 69°15' E 017°58'4 8.7
2018-Apr-14 20:00N 69°11' E 017°59'510.4
2018-Apr-14 19:29N 69°08' E 017°46'510.3
2018-Apr-14 19:00N 69°06' E 017°32'510.0
2018-Apr-14 18:30N 69°04' E 017°21'510.3
2018-Apr-14 18:00N 68°59' E 017°13'510.6
2018-Apr-14 17:30N 68°55' E 017°04'510.3
2018-Apr-14 17:00N 68°50' E 017°08'3 6.6
2018-Apr-14 16:29N 68°47' E 017°11'0 0.0
2018-Apr-14 16:00N 68°47' E 017°11'0 0.0
2018-Apr-14 15:30N 68°47' E 017°11'0 0.0
2018-Apr-14 15:00N 68°47' E 017°11'0 0.1
2018-Apr-14 14:29N 68°47' E 017°11'0 0.1
2018-Apr-14 14:00N 68°47' E 017°11'0 0.0
2018-Apr-14 13:30N 68°47' E 017°11'0 0.0
2018-Apr-14 13:00N 68°47' E 017°11'0 0.0
2018-Apr-14 12:29N 68°47' E 017°11'0 0.0
2018-Apr-14 11:59N 68°47' E 017°11'0 0.0
2018-Apr-14 11:29N 68°47' E 017°11'0 0.0
2018-Apr-14 10:58N 68°47' E 017°11'0 0.0
2018-Apr-14 10:28N 68°47' E 017°11'0 0.0
2018-Apr-14 09:58N 68°47' E 017°11'0 0.0
2018-Apr-14 09:30N 68°47' E 017°11'0 0.0
2018-Apr-14 09:00N 68°47' E 017°11'0 0.0
2018-Apr-14 08:30N 68°47' E 017°11'0 0.0
2018-Apr-14 07:59N 68°47' E 017°11'0 0.0
2018-Apr-14 07:29N 68°47' E 017°11'0 0.0
2018-Apr-14 06:59N 68°47' E 017°11'0 0.0
2018-Apr-14 06:29N 68°47' E 017°11'0 0.0
2018-Apr-14 05:58N 68°47' E 017°11'0 0.0
2018-Apr-14 05:28N 68°47' E 017°11'0 0.1
2018-Apr-14 04:57N 68°47' E 017°11'0 0.1
2018-Apr-14 04:30N 68°47' E 017°11'0 0.0
2018-Apr-14 04:00N 68°47' E 017°11'0 0.0
2018-Apr-14 03:29N 68°47' E 017°11'0 0.0
2018-Apr-14 02:59N 68°47' E 017°11'0 0.0
2018-Apr-14 02:29N 68°47' E 017°11'0 0.0
2018-Apr-14 01:59N 68°47' E 017°11'0 0.0
2018-Apr-14 01:28N 68°47' E 017°11'0 0.0
2018-Apr-14 00:58N 68°47' E 017°11'0 0.0
2018-Apr-14 00:28N 68°47' E 017°11'0 0.0
2018-Apr-14 00:00N 68°47' E 017°11'0 0.0
2018-Apr-13 23:30N 68°47' E 017°11'0 0.0
2018-Apr-13 23:00N 68°47' E 017°11'0 0.0
2018-Apr-13 22:30N 68°47' E 017°11'0 0.0
2018-Apr-13 21:59N 68°47' E 017°11'0 0.7
2018-Apr-13 21:30N 68°46' E 017°11'5 9.4
2018-Apr-13 21:00N 68°44' E 017°01'510.2
2018-Apr-13 20:30N 68°42' E 016°48'5 9.9
2018-Apr-13 20:00N 68°39' E 016°37'5 9.9
2018-Apr-13 19:30N 68°34' E 016°32'4 8.5
2018-Apr-13 19:00N 68°34' E 016°21'5 9.0
2018-Apr-13 18:30N 68°31' E 016°10'510.1
2018-Apr-13 18:00N 68°27' E 016°04'510.2
2018-Apr-13 17:30N 68°22' E 015°58'510.0
2018-Apr-13 17:00N 68°19' E 015°47'510.1
2018-Apr-13 16:29N 68°16' E 015°35'510.1
2018-Apr-13 16:00N 68°14' E 015°23'510.1
2018-Apr-13 15:30N 68°13' E 015°10'510.0
2018-Apr-13 15:00N 68°13' E 014°56'510.3
2018-Apr-13 14:30N 68°14' E 014°43'3 6.2
2018-Apr-13 14:00N 68°14' E 014°35'0 0.1
2018-Apr-13 13:30N 68°14' E 014°35'0 0.0
2018-Apr-13 13:00N 68°14' E 014°35'0 0.0
2018-Apr-13 12:30N 68°14' E 014°35'0 0.0
2018-Apr-13 12:00N 68°14' E 014°35'0 0.0
2018-Apr-13 11:30N 68°14' E 014°35'0 0.0
2018-Apr-13 11:00N 68°14' E 014°35'0 0.0
2018-Apr-13 10:30N 68°14' E 014°35'0 0.0
2018-Apr-13 10:00N 68°14' E 014°35'0 0.0
2018-Apr-13 09:30N 68°14' E 014°35'0 0.0
2018-Apr-13 09:00N 68°14' E 014°35'0 0.0
2018-Apr-13 08:30N 68°14' E 014°35'0 0.0
2018-Apr-13 08:00N 68°14' E 014°35'0 0.0
2018-Apr-13 07:30N 68°14' E 014°35'0 0.0
2018-Apr-13 07:00N 68°14' E 014°35'0 0.0
2018-Apr-13 06:28N 68°14' E 014°35'0 0.0
2018-Apr-13 06:00N 68°14' E 014°35'0 0.0
2018-Apr-13 05:30N 68°14' E 014°35'0 0.0
2018-Apr-13 05:00N 68°14' E 014°35'0 0.0
2018-Apr-13 04:30N 68°14' E 014°35'0 0.0
2018-Apr-13 04:00N 68°14' E 014°35'0 0.0
2018-Apr-13 03:30N 68°14' E 014°35'0 0.0
2018-Apr-13 03:00N 68°14' E 014°35'0 0.0
2018-Apr-13 02:30N 68°14' E 014°35'0 0.0
2018-Apr-13 02:00N 68°14' E 014°35'0 0.0
2018-Apr-13 01:30N 68°14' E 014°35'0 0.0
2018-Apr-13 01:00N 68°14' E 014°35'0 0.0
2018-Apr-13 00:30N 68°14' E 014°35'0 0.0
2018-Apr-13 00:00N 68°14' E 014°35'0 0.0
2018-Apr-12 23:30N 68°14' E 014°35'0 0.0
2018-Apr-12 23:00N 68°14' E 014°35'0 0.0
2018-Apr-12 22:30N 68°14' E 014°35'0 0.0
2018-Apr-12 22:00N 68°14' E 014°35'0 0.0
2018-Apr-12 21:30N 68°14' E 014°35'0 0.0
2018-Apr-12 21:00N 68°14' E 014°35'2 3.9
2018-Apr-12 20:30N 68°12' E 014°33'1 2.4
2018-Apr-12 19:59N 68°13' E 014°36'1 1.4
2018-Apr-12 19:29N 68°13' E 014°36'1 1.5
2018-Apr-12 18:59N 68°14' E 014°34'0 0.0
2018-Apr-12 18:25N 68°14' E 014°34'0 0.0
2018-Apr-12 18:00N 68°14' E 014°34'0 0.0
2018-Apr-12 17:30N 68°14' E 014°34'0 0.0
2018-Apr-12 17:00N 68°14' E 014°34'  

Dump ship's entire track history